Terminal Aerodrome Forecast
Issued by NWS

Home | Current Version | Previous Version | Text Only | Print | Product List | Glossary On
Versions: 1 2 3 4 5 6 7 8 9 10 11 12 13 14 15 16 17 18 19 20 21 22
000
FTUS43 KOAX 242349 AAC
TAFSNY
TAF AMD
KSNY 242349Z 2500/2524 11014KT P6SM -RA VCTS BKN060CB
      TEMPO 2500/2502 25025G35KT 1SM -TSRAGR OVC040CB
     FM250400 VRB05KT P6SM BKN100
     FM251000 29012KT P6SM SCT250
     FM252300 30009KT P6SM FEW250=

USA.gov is the U.S. government's official web portal to all federal, state and local government web resources and services.